Etusivu
METAR-TAF:

METAR-TAF

Lentoasemat :

Athens, Tennessee, Yhdysvallat

Leveyspiiri: 35-23-50N, Pituuspiiri: 084-33-45W, korkeus merenpinnasta: 262 m

Tämänhetkinen sää

Tämä raportti tehtiin 34 minuuttia sitten, kello 00.15 UTC
Tuuli 7 kn koillisesta
Lämpötila 3°C
Kosteus 93%
Ilmanpaine 1027 hPa
Näkyvyys: 9.7 km
Hajonneita pilviä 2200 ft:n korkeudessa
Hajonneita pilviä 3200 ft:n korkeudessa
Pilvistä 4000 ft:n korkeudessa
utua

METAR: KMMI 200015Z AUTO 05007KT 6SM BR BKN022 BKN032 OVC040 03/02 A3034 RMK A01

Aika: 18:49 (00:49 UTC)


TAF: puuttuu

Säähavainnot ja -ennusteet yli 4000 lentoasemalta (METAR- ja TAF-raportit).

Käytössä olevat sääasemat on merkitty karttaan keltaisilla ja punaisilla pisteillä.

Aseta hiiri pisteen päälle nähdäksesi sääaseman nimen.

Klikkaa sitten nähdäksesi säähavainnot ja -ennusteet.

Kartan vaihtaminen: klikkaa mustalla rastilla varustettuja vihreitä pisteitä, niin voit zoomata sisään; viivalla varustettua vihreää pistettä, niin voit zoomata ulos tai vihreitä nuolia, niin pääset viereisille kartoille.


METAR-TAF: